sensor_id;sensor_type;location;lat;lon;timestamp;pressure;altitude;pressure_sealevel;temperature;humidity
8294;BME280;4185;41.506;24.938;2023-02-18T00:00:53;94339.06;;;1.54;79.22
8294;BME280;4185;41.506;24.938;2023-02-18T00:03:21;94338.34;;;1.54;78.97
8294;BME280;4185;41.506;24.938;2023-02-18T00:05:47;94339.25;;;1.44;78.78
8294;BME280;4185;41.506;24.938;2023-02-18T00:08:15;94331.03;;;1.31;78.91
8294;BME280;4185;41.506;24.938;2023-02-18T00:10:42;94339.22;;;1.20;79.50
8294;BME280;4185;41.506;24.938;2023-02-18T00:13:09;94334.09;;;1.06;79.52
8294;BME280;4185;41.506;24.938;2023-02-18T00:15:36;94324.09;;;0.84;80.29
8294;BME280;4185;41.506;24.938;2023-02-18T00:18:04;94328.03;;;0.76;81.54
8294;BME280;4185;41.506;24.938;2023-02-18T00:20:31;94331.72;;;0.85;81.90
8294;BME280;4185;41.506;24.938;2023-02-18T00:23:00;94331.03;;;0.78;81.46
8294;BME280;4185;41.506;24.938;2023-02-18T00:25:29;94323.72;;;0.82;81.73
8294;BME280;4185;41.506;24.938;2023-02-18T00:27:55;94332.09;;;0.84;82.23
8294;BME280;4185;41.506;24.938;2023-02-18T00:30:22;94337.81;;;0.86;82.11
8294;BME280;4185;41.506;24.938;2023-02-18T00:32:49;94329.13;;;0.78;83.60
8294;BME280;4185;41.506;24.938;2023-02-18T00:35:16;94328.63;;;0.87;83.54
8294;BME280;4185;41.506;24.938;2023-02-18T00:37:43;94330.16;;;0.88;82.43
8294;BME280;4185;41.506;24.938;2023-02-18T00:40:10;94327.94;;;0.83;82.01
8294;BME280;4185;41.506;24.938;2023-02-18T00:42:38;94327.94;;;0.83;82.95
8294;BME280;4185;41.506;24.938;2023-02-18T00:45:06;94314.22;;;0.81;83.79
8294;BME280;4185;41.506;24.938;2023-02-18T00:47:33;94323.72;;;0.82;82.39
8294;BME280;4185;41.506;24.938;2023-02-18T00:49:59;94320.34;;;0.78;81.93
8294;BME280;4185;41.506;24.938;2023-02-18T00:52:26;94323.00;;;0.78;82.85
8294;BME280;4185;41.506;24.938;2023-02-18T00:54:53;94314.25;;;0.77;82.54
8294;BME280;4185;41.506;24.938;2023-02-18T00:57:19;94315.56;;;0.66;82.57
8294;BME280;4185;41.506;24.938;2023-02-18T00:59:48;94296.50;;;0.64;83.40
8294;BME280;4185;41.506;24.938;2023-02-18T01:02:14;94300.31;;;0.63;83.46
8294;BME280;4185;41.506;24.938;2023-02-18T01:04:41;94299.97;;;0.61;84.55
8294;BME280;4185;41.506;24.938;2023-02-18T01:07:08;94294.88;;;0.70;84.49
8294;BME280;4185;41.506;24.938;2023-02-18T01:09:35;94288.72;;;0.73;82.47
8294;BME280;4185;41.506;24.938;2023-02-18T01:12:02;94283.81;;;0.68;81.71
8294;BME280;4185;41.506;24.938;2023-02-18T01:14:29;94285.13;;;0.56;81.98
8294;BME280;4185;41.506;24.938;2023-02-18T01:16:57;94288.56;;;0.57;82.38
8294;BME280;4185;41.506;24.938;2023-02-18T01:19:24;94279.13;;;0.49;82.71
8294;BME280;4185;41.506;24.938;2023-02-18T01:21:51;94274.03;;;0.58;82.80
8294;BME280;4185;41.506;24.938;2023-02-18T01:24:18;94268.22;;;0.63;82.04
8294;BME280;4185;41.506;24.938;2023-02-18T01:26:44;94261.03;;;0.60;82.40
8294;BME280;4185;41.506;24.938;2023-02-18T01:29:11;94255.56;;;0.67;82.38
8294;BME280;4185;41.506;24.938;2023-02-18T01:31:38;94251.50;;;0.59;82.11
8294;BME280;4185;41.506;24.938;2023-02-18T01:34:06;94243.47;;;0.59;82.66
8294;BME280;4185;41.506;24.938;2023-02-18T01:36:33;94244.56;;;0.61;81.37
8294;BME280;4185;41.506;24.938;2023-02-18T01:38:59;94238.13;;;0.59;81.29
8294;BME280;4185;41.506;24.938;2023-02-18T01:41:26;94230.22;;;0.52;80.85
8294;BME280;4185;41.506;24.938;2023-02-18T01:44:09;94234.56;;;0.42;80.75
8294;BME280;4185;41.506;24.938;2023-02-18T01:46:36;94227.38;;;0.36;81.34
8294;BME280;4185;41.506;24.938;2023-02-18T01:49:03;94233.97;;;0.28;81.11
8294;BME280;4185;41.506;24.938;2023-02-18T01:51:35;94230.69;;;0.17;81.10
8294;BME280;4185;41.506;24.938;2023-02-18T01:54:06;94234.88;;;0.18;81.97
8294;BME280;4185;41.506;24.938;2023-02-18T01:56:38;94223.13;;;0.12;81.44
8294;BME280;4185;41.506;24.938;2023-02-18T01:59:08;94216.16;;;0.18;81.46
8294;BME280;4185;41.506;24.938;2023-02-18T02:01:37;94213.19;;;0.12;81.61
8294;BME280;4185;41.506;24.938;2023-02-18T02:04:05;94212.53;;;0.05;81.50
8294;BME280;4185;41.506;24.938;2023-02-18T02:06:33;94208.00;;;0.02;81.70
8294;BME280;4185;41.506;24.938;2023-02-18T02:09:03;94204.16;;;0.03;81.60
8294;BME280;4185;41.506;24.938;2023-02-18T02:11:47;94207.22;;;0.01;81.38
8294;BME280;4185;41.506;24.938;2023-02-18T02:14:31;94201.44;;;0.06;81.75
8294;BME280;4185;41.506;24.938;2023-02-18T02:17:03;94213.13;;;0.16;81.85
8294;BME280;4185;41.506;24.938;2023-02-18T02:25:37;94202.63;;;0.32;80.31
8294;BME280;4185;41.506;24.938;2023-02-18T02:28:29;94193.53;;;0.26;80.51
8294;BME280;4185;41.506;24.938;2023-02-18T02:31:19;94186.34;;;0.23;81.00
8294;BME280;4185;41.506;24.938;2023-02-18T02:36:47;94196.88;;;0.07;80.36
8294;BME280;4185;41.506;24.938;2023-02-18T02:39:20;94189.31;;;0.02;80.37
8294;BME280;4185;41.506;24.938;2023-02-18T02:41:54;94191.34;;;-0.10;79.74
8294;BME280;4185;41.506;24.938;2023-02-18T02:44:31;94197.16;;;-0.18;80.84
8294;BME280;4185;41.506;24.938;2023-02-18T02:47:07;94199.47;;;-0.20;82.02
8294;BME280;4185;41.506;24.938;2023-02-18T02:49:40;94198.00;;;-0.25;82.15
8294;BME280;4185;41.506;24.938;2023-02-18T02:52:14;94206.53;;;-0.37;82.04
8294;BME280;4185;41.506;24.938;2023-02-18T02:54:43;94201.53;;;-0.31;82.47
8294;BME280;4185;41.506;24.938;2023-02-18T02:57:40;94205.63;;;-0.23;82.09
8294;BME280;4185;41.506;24.938;2023-02-18T03:00:09;94193.47;;;-0.28;81.62
8294;BME280;4185;41.506;24.938;2023-02-18T03:03:01;94197.50;;;-0.46;81.51
8294;BME280;4185;41.506;24.938;2023-02-18T03:05:38;94204.34;;;-0.45;83.26
8294;BME280;4185;41.506;24.938;2023-02-18T03:08:23;94201.94;;;-0.33;84.92
8294;BME280;4185;41.506;24.938;2023-02-18T03:10:55;94198.78;;;-0.24;83.13
8294;BME280;4185;41.506;24.938;2023-02-18T03:13:37;94202.53;;;-0.22;82.46
8294;BME280;4185;41.506;24.938;2023-02-18T03:16:13;94197.66;;;-0.27;81.08
8294;BME280;4185;41.506;24.938;2023-02-18T03:18:45;94195.06;;;-0.34;81.56
8294;BME280;4185;41.506;24.938;2023-02-18T03:21:17;94195.59;;;-0.46;81.63
8294;BME280;4185;41.506;24.938;2023-02-18T03:23:49;94205.22;;;-0.55;82.48
8294;BME280;4185;41.506;24.938;2023-02-18T03:26:20;94195.28;;;-0.51;83.03
8294;BME280;4185;41.506;24.938;2023-02-18T03:28:48;94202.88;;;-0.50;83.03
8294;BME280;4185;41.506;24.938;2023-02-18T03:31:19;94201.09;;;-0.60;82.28
8294;BME280;4185;41.506;24.938;2023-02-18T03:33:51;94206.50;;;-0.67;83.91
8294;BME280;4185;41.506;24.938;2023-02-18T03:36:22;94203.81;;;-0.67;84.40
8294;BME280;4185;41.506;24.938;2023-02-18T03:38:55;94202.22;;;-0.61;84.40
8294;BME280;4185;41.506;24.938;2023-02-18T03:41:23;94201.44;;;-0.58;84.07
8294;BME280;4185;41.506;24.938;2023-02-18T03:43:49;94211.28;;;-0.51;84.84
8294;BME280;4185;41.506;24.938;2023-02-18T03:46:16;94212.38;;;-0.49;85.23
8294;BME280;4185;41.506;24.938;2023-02-18T03:48:43;94208.88;;;-0.42;84.29
8294;BME280;4185;41.506;24.938;2023-02-18T03:51:10;94201.75;;;-0.52;82.91
8294;BME280;4185;41.506;24.938;2023-02-18T03:53:37;94205.75;;;-0.71;83.25
8294;BME280;4185;41.506;24.938;2023-02-18T03:56:06;94202.00;;;-0.77;84.41
8294;BME280;4185;41.506;24.938;2023-02-18T03:58:32;94198.84;;;-0.65;84.71
8294;BME280;4185;41.506;24.938;2023-02-18T04:01:00;94195.31;;;-0.55;84.80
8294;BME280;4185;41.506;24.938;2023-02-18T04:03:27;94200.94;;;-0.46;84.47
8294;BME280;4185;41.506;24.938;2023-02-18T04:05:53;94202.94;;;-0.57;84.13
8294;BME280;4185;41.506;24.938;2023-02-18T04:08:20;94196.44;;;-0.56;85.12
8294;BME280;4185;41.506;24.938;2023-02-18T04:10:47;94186.50;;;-0.52;84.58
8294;BME280;4185;41.506;24.938;2023-02-18T04:13:15;94190.25;;;-0.46;84.89
8294;BME280;4185;41.506;24.938;2023-02-18T04:15:43;94197.53;;;-0.50;83.25
8294;BME280;4185;41.506;24.938;2023-02-18T04:18:10;94189.97;;;-0.55;83.53
8294;BME280;4185;41.506;24.938;2023-02-18T04:20:36;94188.84;;;-0.57;83.93
8294;BME280;4185;41.506;24.938;2023-02-18T04:23:04;94186.19;;;-0.57;83.99
8294;BME280;4185;41.506;24.938;2023-02-18T04:25:31;94188.09;;;-0.58;83.81
8294;BME280;4185;41.506;24.938;2023-02-18T04:27:57;94170.69;;;-0.69;83.26
8294;BME280;4185;41.506;24.938;2023-02-18T04:30:26;94191.47;;;-0.54;82.81
8294;BME280;4185;41.506;24.938;2023-02-18T04:32:52;94194.50;;;-0.52;82.78
8294;BME280;4185;41.506;24.938;2023-02-18T04:35:19;94192.66;;;-0.55;82.97
8294;BME280;4185;41.506;24.938;2023-02-18T04:37:46;94201.84;;;-0.59;82.40
8294;BME280;4185;41.506;24.938;2023-02-18T04:40:13;94193.88;;;-0.63;82.47
8294;BME280;4185;41.506;24.938;2023-02-18T04:42:40;94194.78;;;-0.76;82.08
8294;BME280;4185;41.506;24.938;2023-02-18T04:45:07;94203.94;;;-0.81;82.65
8294;BME280;4185;41.506;24.938;2023-02-18T04:47:36;94209.28;;;-0.81;83.05
8294;BME280;4185;41.506;24.938;2023-02-18T04:50:03;94211.53;;;-0.76;83.22
8294;BME280;4185;41.506;24.938;2023-02-18T04:52:30;94212.28;;;-0.75;82.23
8294;BME280;4185;41.506;24.938;2023-02-18T04:54:56;94210.81;;;-0.80;81.90
8294;BME280;4185;41.506;24.938;2023-02-18T04:57:23;94212.38;;;-0.86;82.10
8294;BME280;4185;41.506;24.938;2023-02-18T04:59:50;94217.75;;;-0.89;82.26
8294;BME280;4185;41.506;24.938;2023-02-18T05:02:16;94221.97;;;-0.92;81.84
8294;BME280;4185;41.506;24.938;2023-02-18T05:04:45;94228.09;;;-0.95;82.26
8294;BME280;4185;41.506;24.938;2023-02-18T05:07:11;94219.38;;;-0.99;82.16
8294;BME280;4185;41.506;24.938;2023-02-18T05:09:38;94214.88;;;-1.09;81.95
8294;BME280;4185;41.506;24.938;2023-02-18T05:12:05;94220.97;;;-1.08;83.10
8294;BME280;4185;41.506;24.938;2023-02-18T05:14:32;94225.53;;;-1.05;82.98
8294;BME280;4185;41.506;24.938;2023-02-18T05:16:59;94225.47;;;-0.98;83.59
8294;BME280;4185;41.506;24.938;2023-02-18T05:19:26;94222.34;;;-0.90;83.87
8294;BME280;4185;41.506;24.938;2023-02-18T05:21:54;94235.28;;;-0.88;83.36
8294;BME280;4185;41.506;24.938;2023-02-18T05:24:21;94227.69;;;-0.90;82.96
8294;BME280;4185;41.506;24.938;2023-02-18T05:26:47;94233.78;;;-0.93;82.88
8294;BME280;4185;41.506;24.938;2023-02-18T05:29:14;94250.53;;;-0.92;82.87
8294;BME280;4185;41.506;24.938;2023-02-18T05:31:41;94237.94;;;-0.88;83.74
8294;BME280;4185;41.506;24.938;2023-02-18T05:34:08;94248.28;;;-0.94;83.27
8294;BME280;4185;41.506;24.938;2023-02-18T05:36:34;94249.75;;;-0.89;84.26
8294;BME280;4185;41.506;24.938;2023-02-18T05:39:03;94253.91;;;-0.85;83.16
8294;BME280;4185;41.506;24.938;2023-02-18T05:41:29;94249.28;;;-0.81;82.75
8294;BME280;4185;41.506;24.938;2023-02-18T05:43:56;94253.13;;;-0.82;82.92
8294;BME280;4185;41.506;24.938;2023-02-18T05:46:40;94247.78;;;-0.82;83.52
8294;BME280;4185;41.506;24.938;2023-02-18T05:49:07;94245.19;;;-0.92;83.50
8294;BME280;4185;41.506;24.938;2023-02-18T05:51:34;94238.41;;;-0.97;84.09
8294;BME280;4185;41.506;24.938;2023-02-18T05:54:03;94241.13;;;-1.04;84.54
8294;BME280;4185;41.506;24.938;2023-02-18T05:56:29;94245.19;;;-0.89;84.53
8294;BME280;4185;41.506;24.938;2023-02-18T05:58:56;94243.31;;;-0.92;85.24
8294;BME280;4185;41.506;24.938;2023-02-18T06:01:23;94245.59;;;-0.94;85.15
8294;BME280;4185;41.506;24.938;2023-02-18T06:03:50;94249.72;;;-0.86;85.84
8294;BME280;4185;41.506;24.938;2023-02-18T06:06:16;94248.19;;;-0.83;86.20
8294;BME280;4185;41.506;24.938;2023-02-18T06:08:43;94253.75;;;-0.71;85.88
8294;BME280;4185;41.506;24.938;2023-02-18T06:11:11;94257.91;;;-0.63;85.96
8294;BME280;4185;41.506;24.938;2023-02-18T06:13:38;94252.53;;;-0.59;85.83
8294;BME280;4185;41.506;24.938;2023-02-18T06:16:05;94253.16;;;-0.45;85.02
8294;BME280;4185;41.506;24.938;2023-02-18T06:18:32;94250.78;;;-0.36;85.23
8294;BME280;4185;41.506;24.938;2023-02-18T06:20:59;94257.69;;;-0.42;85.36
8294;BME280;4185;41.506;24.938;2023-02-18T06:23:25;94249.91;;;-0.26;86.15
8294;BME280;4185;41.506;24.938;2023-02-18T06:25:52;94247.00;;;-0.08;85.12
8294;BME280;4185;41.506;24.938;2023-02-18T06:28:20;94244.28;;;-0.05;85.64
8294;BME280;4185;41.506;24.938;2023-02-18T06:30:48;94253.34;;;0.05;85.56
8294;BME280;4185;41.506;24.938;2023-02-18T06:33:15;94253.94;;;0.20;85.16
8294;BME280;4185;41.506;24.938;2023-02-18T06:35:51;94250.72;;;0.32;84.84
8294;BME280;4185;41.506;24.938;2023-02-18T06:38:18;94252.22;;;0.33;84.98
8294;BME280;4185;41.506;24.938;2023-02-18T06:40:46;94250.31;;;0.33;86.68
8294;BME280;4185;41.506;24.938;2023-02-18T06:43:12;94247.41;;;0.51;85.14
8294;BME280;4185;41.506;24.938;2023-02-18T06:45:40;94227.22;;;0.46;83.40
8294;BME280;4185;41.506;24.938;2023-02-18T06:48:07;94240.00;;;0.62;83.22
8294;BME280;4185;41.506;24.938;2023-02-18T06:50:34;94241.03;;;0.68;83.47
8294;BME280;4185;41.506;24.938;2023-02-18T06:53:01;94234.09;;;0.74;83.71
8294;BME280;4185;41.506;24.938;2023-02-18T06:55:27;94220.31;;;0.75;83.72
8294;BME280;4185;41.506;24.938;2023-02-18T06:57:54;94219.66;;;0.68;84.64
8294;BME280;4185;41.506;24.938;2023-02-18T07:00:21;94223.84;;;0.69;84.63
8294;BME280;4185;41.506;24.938;2023-02-18T07:02:49;94215.69;;;0.79;85.52
8294;BME280;4185;41.506;24.938;2023-02-18T07:05:16;94221.91;;;0.96;85.95
8294;BME280;4185;41.506;24.938;2023-02-18T07:07:43;94224.34;;;1.10;86.38
8294;BME280;4185;41.506;24.938;2023-02-18T07:10:10;94223.44;;;1.20;85.15
8294;BME280;4185;41.506;24.938;2023-02-18T07:12:37;94219.34;;;1.35;84.60
8294;BME280;4185;41.506;24.938;2023-02-18T07:15:04;94223.03;;;1.41;84.21
8294;BME280;4185;41.506;24.938;2023-02-18T07:17:32;94217.91;;;1.50;85.65
8294;BME280;4185;41.506;24.938;2023-02-18T07:20:00;94217.09;;;1.53;85.42
8294;BME280;4185;41.506;24.938;2023-02-18T07:22:26;94222.69;;;1.62;85.13
8294;BME280;4185;41.506;24.938;2023-02-18T07:24:53;94229.06;;;1.68;84.48
8294;BME280;4185;41.506;24.938;2023-02-18T07:27:21;94221.59;;;1.79;83.63
8294;BME280;4185;41.506;24.938;2023-02-18T07:29:48;94217.31;;;1.82;83.17
8294;BME280;4185;41.506;24.938;2023-02-18T07:32:16;94218.75;;;1.86;84.12
8294;BME280;4185;41.506;24.938;2023-02-18T07:34:43;94217.59;;;1.87;84.47
8294;BME280;4185;41.506;24.938;2023-02-18T07:37:11;94210.03;;;1.82;85.29
8294;BME280;4185;41.506;24.938;2023-02-18T07:39:39;94214.50;;;1.89;85.02
8294;BME280;4185;41.506;24.938;2023-02-18T07:42:06;94212.91;;;2.11;84.68
8294;BME280;4185;41.506;24.938;2023-02-18T07:44:33;94201.63;;;2.19;84.29
8294;BME280;4185;41.506;24.938;2023-02-18T07:47:01;94207.66;;;2.23;84.05
8294;BME280;4185;41.506;24.938;2023-02-18T07:49:27;94215.06;;;2.35;84.87
8294;BME280;4185;41.506;24.938;2023-02-18T07:51:54;94199.88;;;2.48;84.73
8294;BME280;4185;41.506;24.938;2023-02-18T07:54:23;94208.91;;;2.71;84.97
8294;BME280;4185;41.506;24.938;2023-02-18T07:56:50;94203.59;;;2.87;84.55
8294;BME280;4185;41.506;24.938;2023-02-18T07:59:17;94201.00;;;2.99;83.74
8294;BME280;4185;41.506;24.938;2023-02-18T08:01:44;94199.97;;;3.09;83.36
8294;BME280;4185;41.506;24.938;2023-02-18T08:04:11;94196.72;;;3.18;82.43
8294;BME280;4185;41.506;24.938;2023-02-18T08:06:41;94180.31;;;3.28;83.50
8294;BME280;4185;41.506;24.938;2023-02-18T08:09:08;94168.47;;;3.42;83.88
8294;BME280;4185;41.506;24.938;2023-02-18T08:11:36;94165.22;;;3.63;83.23
8294;BME280;4185;41.506;24.938;2023-02-18T08:14:03;94176.22;;;3.81;82.15
8294;BME280;4185;41.506;24.938;2023-02-18T08:16:30;94166.50;;;4.00;81.50
8294;BME280;4185;41.506;24.938;2023-02-18T08:18:57;94162.78;;;4.22;80.20
8294;BME280;4185;41.506;24.938;2023-02-18T08:21:24;94157.00;;;4.36;78.13
8294;BME280;4185;41.506;24.938;2023-02-18T08:23:51;94159.25;;;4.50;78.97
8294;BME280;4185;41.506;24.938;2023-02-18T08:26:19;94141.59;;;4.62;78.15
8294;BME280;4185;41.506;24.938;2023-02-18T08:28:48;94139.78;;;4.71;77.67
8294;BME280;4185;41.506;24.938;2023-02-18T08:31:16;94142.53;;;4.80;76.81
8294;BME280;4185;41.506;24.938;2023-02-18T08:33:46;94142.31;;;4.87;76.48
8294;BME280;4185;41.506;24.938;2023-02-18T08:36:13;94140.00;;;5.11;77.34
8294;BME280;4185;41.506;24.938;2023-02-18T08:38:40;94142.34;;;5.34;75.68
8294;BME280;4185;41.506;24.938;2023-02-18T08:41:07;94140.84;;;5.55;75.66
8294;BME280;4185;41.506;24.938;2023-02-18T08:43:34;94137.34;;;5.67;74.21
8294;BME280;4185;41.506;24.938;2023-02-18T08:46:03;94124.81;;;5.73;72.87
8294;BME280;4185;41.506;24.938;2023-02-18T08:48:31;94120.13;;;5.86;72.96
8294;BME280;4185;41.506;24.938;2023-02-18T08:50:58;94110.03;;;5.99;72.32
8294;BME280;4185;41.506;24.938;2023-02-18T08:53:26;94106.75;;;6.04;70.24
8294;BME280;4185;41.506;24.938;2023-02-18T08:55:52;94097.50;;;6.05;70.14
8294;BME280;4185;41.506;24.938;2023-02-18T08:58:19;94091.91;;;6.30;70.08
8294;BME280;4185;41.506;24.938;2023-02-18T09:00:46;94090.00;;;6.40;69.22
8294;BME280;4185;41.506;24.938;2023-02-18T09:03:14;94080.72;;;6.41;68.73
8294;BME280;4185;41.506;24.938;2023-02-18T09:05:41;94089.41;;;6.45;68.58
8294;BME280;4185;41.506;24.938;2023-02-18T09:08:08;94093.78;;;6.51;68.14
8294;BME280;4185;41.506;24.938;2023-02-18T09:10:35;94083.91;;;6.57;68.54
8294;BME280;4185;41.506;24.938;2023-02-18T09:13:03;94082.03;;;6.76;68.33
8294;BME280;4185;41.506;24.938;2023-02-18T09:15:30;94074.41;;;7.01;68.47
8294;BME280;4185;41.506;24.938;2023-02-18T09:17:57;94065.28;;;7.26;67.33
8294;BME280;4185;41.506;24.938;2023-02-18T09:20:25;94063.94;;;7.49;65.57
8294;BME280;4185;41.506;24.938;2023-02-18T09:22:52;94062.88;;;7.64;64.46
8294;BME280;4185;41.506;24.938;2023-02-18T09:25:19;94060.88;;;7.65;63.99
8294;BME280;4185;41.506;24.938;2023-02-18T09:27:46;94058.78;;;7.69;61.53
8294;BME280;4185;41.506;24.938;2023-02-18T09:30:13;94060.53;;;7.99;62.21
8294;BME280;4185;41.506;24.938;2023-02-18T09:32:40;94046.19;;;8.25;61.98
8294;BME280;4185;41.506;24.938;2023-02-18T09:35:07;94049.41;;;8.47;60.65
8294;BME280;4185;41.506;24.938;2023-02-18T09:37:35;94038.91;;;8.73;60.03
8294;BME280;4185;41.506;24.938;2023-02-18T09:40:05;94036.94;;;8.97;59.12
8294;BME280;4185;41.506;24.938;2023-02-18T09:42:33;94029.97;;;9.05;57.30
8294;BME280;4185;41.506;24.938;2023-02-18T09:45:03;94033.88;;;9.28;56.44
8294;BME280;4185;41.506;24.938;2023-02-18T09:47:34;94029.63;;;9.65;54.29
8294;BME280;4185;41.506;24.938;2023-02-18T09:50:05;94022.44;;;9.76;54.88
8294;BME280;4185;41.506;24.938;2023-02-18T09:52:35;94020.84;;;9.70;54.71
8294;BME280;4185;41.506;24.938;2023-02-18T09:55:17;94016.34;;;9.67;55.41
8294;BME280;4185;41.506;24.938;2023-02-18T09:57:46;94002.50;;;9.65;55.87
8294;BME280;4185;41.506;24.938;2023-02-18T10:00:16;94003.06;;;9.83;52.95
8294;BME280;4185;41.506;24.938;2023-02-18T10:02:52;94007.00;;;10.26;50.17
8294;BME280;4185;41.506;24.938;2023-02-18T10:05:20;93998.94;;;10.66;48.12
8294;BME280;4185;41.506;24.938;2023-02-18T10:07:51;94004.19;;;11.10;46.83
8294;BME280;4185;41.506;24.938;2023-02-18T10:10:21;94005.50;;;11.40;46.13
8294;BME280;4185;41.506;24.938;2023-02-18T10:12:51;94002.63;;;11.69;46.10
8294;BME280;4185;41.506;24.938;2023-02-18T10:15:22;93996.69;;;11.96;45.81
8294;BME280;4185;41.506;24.938;2023-02-18T10:17:50;93990.19;;;12.19;45.68
8294;BME280;4185;41.506;24.938;2023-02-18T10:20:19;93988.09;;;12.35;42.95
8294;BME280;4185;41.506;24.938;2023-02-18T10:22:50;93982.78;;;12.51;43.54
8294;BME280;4185;41.506;24.938;2023-02-18T10:25:21;93984.59;;;12.71;43.24
8294;BME280;4185;41.506;24.938;2023-02-18T10:27:49;93986.34;;;12.68;42.45
8294;BME280;4185;41.506;24.938;2023-02-18T10:30:22;93979.59;;;12.64;42.03
8294;BME280;4185;41.506;24.938;2023-02-18T10:32:54;93971.47;;;12.69;44.14
8294;BME280;4185;41.506;24.938;2023-02-18T10:35:24;93971.53;;;12.80;43.99
8294;BME280;4185;41.506;24.938;2023-02-18T10:38:02;93961.44;;;12.92;41.52
8294;BME280;4185;41.506;24.938;2023-02-18T10:40:41;93966.06;;;13.28;40.42
8294;BME280;4185;41.506;24.938;2023-02-18T10:43:19;93969.63;;;13.67;40.42
8294;BME280;4185;41.506;24.938;2023-02-18T10:45:51;93962.47;;;14.03;39.45
8294;BME280;4185;41.506;24.938;2023-02-18T10:48:34;93971.69;;;14.33;39.08
8294;BME280;4185;41.506;24.938;2023-02-18T10:51:14;93965.44;;;14.60;37.62
8294;BME280;4185;41.506;24.938;2023-02-18T10:53:44;93964.13;;;14.89;37.22
8294;BME280;4185;41.506;24.938;2023-02-18T10:56:31;93938.69;;;15.10;34.64
8294;BME280;4185;41.506;24.938;2023-02-18T10:59:01;93944.06;;;15.32;34.23
8294;BME280;4185;41.506;24.938;2023-02-18T11:01:31;93946.03;;;15.37;35.01
8294;BME280;4185;41.506;24.938;2023-02-18T11:04:13;93931.56;;;15.48;34.07
8294;BME280;4185;41.506;24.938;2023-02-18T11:06:42;93928.00;;;15.64;34.11
8294;BME280;4185;41.506;24.938;2023-02-18T11:09:26;93921.47;;;15.72;34.38
8294;BME280;4185;41.506;24.938;2023-02-18T11:12:02;93920.63;;;15.83;32.86
8294;BME280;4185;41.506;24.938;2023-02-18T11:14:40;93920.09;;;16.20;32.27
8294;BME280;4185;41.506;24.938;2023-02-18T11:17:14;93916.09;;;16.21;32.99
8294;BME280;4185;41.506;24.938;2023-02-18T11:19:42;93912.53;;;16.31;32.56
8294;BME280;4185;41.506;24.938;2023-02-18T11:22:15;93900.53;;;16.34;31.54
8294;BME280;4185;41.506;24.938;2023-02-18T11:24:45;93907.91;;;16.50;32.31
8294;BME280;4185;41.506;24.938;2023-02-18T11:27:21;93901.19;;;16.70;32.25
8294;BME280;4185;41.506;24.938;2023-02-18T11:29:51;93899.56;;;17.04;31.89
8294;BME280;4185;41.506;24.938;2023-02-18T11:32:25;93894.09;;;17.41;31.28
8294;BME280;4185;41.506;24.938;2023-02-18T11:34:52;93893.28;;;17.65;30.72
8294;BME280;4185;41.506;24.938;2023-02-18T11:37:20;93893.34;;;17.78;30.64
8294;BME280;4185;41.506;24.938;2023-02-18T11:39:51;93894.41;;;17.56;30.92
8294;BME280;4185;41.506;24.938;2023-02-18T11:42:21;93884.59;;;17.24;30.71
8294;BME280;4185;41.506;24.938;2023-02-18T11:44:51;93875.03;;;17.49;31.40
8294;BME280;4185;41.506;24.938;2023-02-18T11:47:23;93880.84;;;17.95;29.40
8294;BME280;4185;41.506;24.938;2023-02-18T11:50:09;93881.00;;;18.16;28.54
8294;BME280;4185;41.506;24.938;2023-02-18T11:52:41;93879.91;;;18.06;28.05
8294;BME280;4185;41.506;24.938;2023-02-18T11:55:14;93876.84;;;18.41;28.37
8294;BME280;4185;41.506;24.938;2023-02-18T11:57:44;93880.13;;;18.66;28.28
8294;BME280;4185;41.506;24.938;2023-02-18T12:00:20;93872.19;;;19.01;27.20
8294;BME280;4185;41.506;24.938;2023-02-18T12:02:47;93885.09;;;18.67;27.13
8294;BME280;4185;41.506;24.938;2023-02-18T12:05:18;93884.88;;;18.52;28.54
8294;BME280;4185;41.506;24.938;2023-02-18T12:07:48;93873.09;;;18.39;28.13
8294;BME280;4185;41.506;24.938;2023-02-18T12:10:24;93865.13;;;18.09;28.55
8294;BME280;4185;41.506;24.938;2023-02-18T12:12:57;93866.03;;;17.98;28.45
8294;BME280;4185;41.506;24.938;2023-02-18T12:15:33;93863.88;;;18.23;26.36
8294;BME280;4185;41.506;24.938;2023-02-18T12:18:21;93860.78;;;18.13;27.52
8294;BME280;4185;41.506;24.938;2023-02-18T12:21:00;93860.25;;;18.15;28.06
8294;BME280;4185;41.506;24.938;2023-02-18T12:23:35;93849.47;;;18.04;27.98
8294;BME280;4185;41.506;24.938;2023-02-18T12:26:17;93847.16;;;18.21;28.17
8294;BME280;4185;41.506;24.938;2023-02-18T12:28:57;93846.97;;;18.32;28.18
8294;BME280;4185;41.506;24.938;2023-02-18T12:31:34;93854.75;;;18.60;29.16
8294;BME280;4185;41.506;24.938;2023-02-18T12:34:14;93861.50;;;18.98;29.88
8294;BME280;4185;41.506;24.938;2023-02-18T12:36:53;93852.53;;;18.58;30.83
8294;BME280;4185;41.506;24.938;2023-02-18T12:39:44;93853.16;;;18.77;30.89
8294;BME280;4185;41.506;24.938;2023-02-18T12:42:32;93853.91;;;19.51;30.34
8294;BME280;4185;41.506;24.938;2023-02-18T12:45:16;93847.41;;;20.15;29.14
8294;BME280;4185;41.506;24.938;2023-02-18T12:48:04;93846.19;;;20.52;28.21
8294;BME280;4185;41.506;24.938;2023-02-18T12:51:04;93839.09;;;20.64;27.86
8294;BME280;4185;41.506;24.938;2023-02-18T12:53:53;93836.47;;;20.30;29.01
8294;BME280;4185;41.506;24.938;2023-02-18T12:56:36;93833.16;;;19.91;29.53
8294;BME280;4185;41.506;24.938;2023-02-18T12:59:17;93845.97;;;19.47;30.04
8294;BME280;4185;41.506;24.938;2023-02-18T13:01:52;93838.06;;;19.64;30.02
8294;BME280;4185;41.506;24.938;2023-02-18T13:04:35;93840.06;;;19.97;29.83
8294;BME280;4185;41.506;24.938;2023-02-18T13:07:32;93832.38;;;20.24;29.81
8294;BME280;4185;41.506;24.938;2023-02-18T13:10:17;93838.13;;;20.54;28.50
8294;BME280;4185;41.506;24.938;2023-02-18T13:12:51;93825.69;;;20.40;28.74
8294;BME280;4185;41.506;24.938;2023-02-18T13:15:22;93826.78;;;19.75;29.92
8294;BME280;4185;41.506;24.938;2023-02-18T13:17:54;93822.50;;;19.54;29.81
8294;BME280;4185;41.506;24.938;2023-02-18T13:20:27;93828.13;;;19.14;30.37
8294;BME280;4185;41.506;24.938;2023-02-18T13:22:59;93825.47;;;19.56;29.46
8294;BME280;4185;41.506;24.938;2023-02-18T13:25:35;93830.06;;;19.74;29.28
8294;BME280;4185;41.506;24.938;2023-02-18T13:28:07;93826.16;;;18.89;30.80
8294;BME280;4185;41.506;24.938;2023-02-18T13:30:41;93826.28;;;18.44;31.69
8294;BME280;4185;41.506;24.938;2023-02-18T13:33:16;93821.75;;;18.15;32.25
8294;BME280;4185;41.506;24.938;2023-02-18T13:35:48;93829.06;;;17.99;32.74
8294;BME280;4185;41.506;24.938;2023-02-18T13:38:35;93824.38;;;17.94;32.96
8294;BME280;4185;41.506;24.938;2023-02-18T13:41:13;93833.06;;;17.98;33.13